Main page
METAR-TAF:

METAR-TAF

Airports :

Shaikh Zayed International Airport

Rahim Yar Khan, Pakistan

latitude: 28-23-02N, longitude: 70-16-47E, elevation: 83 m

METAR: missing

Time: 13:11 (08:11 UTC)

Forecast

The report was made 4 hours and 1 minutes ago, at 04:10 UTC
Forecast valid from 30 at 06 UTC to 30 at 24 UTC
Wind 10 kt from the South
Visibility: 6000 m
Few clouds at a height of 4000 ft
Scattered clouds at a height of 12000 ft
Probability 30% :
Temporary
from 30 at 12 UTC to 30 at 16 UTC
Wind 20 kt from the North
Visibility: 2000 m
Scattered clouds at a height of 4000 ft
Broken clouds at a height of 10000 ft
Blowing dust
From 30 at 1800 UTC
Wind 10 kt from the Northeast
Visibility: 4000 m
Scattered clouds at a height of 4000 ft
Scattered clouds at a height of 10000 ft
smoke

TAF: OPRK 300410Z 3006/3024 18010KT 6000 FEW040 SCT120 TX40/3010Z PROB30 TEMPO 3012/3016 36020KT 2000 BLDU SCT040 BKN100 FM301800 05010KT 4000 FU SCT040 SCT100

Weather observations and forecasts of more than 4000 airports (METAR and TAF reports).

The available stations are represented by yellow and red dots on the map.

Hover mouse over dot to see the name of the station.

Then click to see weather observations and forecasts.

To change the map : click on the green buttons with a black cross to zoom in, on the green button with a dash to zoom out, or on the green arrows for adjacent maps.


METAR-TAF: